createdAt,value
2022-09-02T00:02:07.950Z,0.70
2022-09-02T00:04:35.398Z,0.90
2022-09-02T00:07:02.751Z,0.90
2022-09-02T00:09:30.327Z,0.90
2022-09-02T00:11:57.989Z,0.80
2022-09-02T00:14:30.754Z,0.87
2022-09-02T00:17:00.740Z,0.90
2022-09-02T00:19:29.555Z,1.00
2022-09-02T00:21:57.666Z,0.93
2022-09-02T00:24:25.064Z,0.83
2022-09-02T00:26:56.391Z,0.80
2022-09-02T00:29:25.885Z,0.73
2022-09-02T00:31:53.611Z,0.90
2022-09-02T00:34:20.969Z,0.90
2022-09-02T00:36:48.338Z,0.80
2022-09-02T00:39:15.906Z,0.80
2022-09-02T00:41:44.262Z,0.80
2022-09-02T00:44:14.005Z,0.60
2022-09-02T00:46:41.513Z,0.70
2022-09-02T00:49:11.108Z,0.70
2022-09-02T00:51:41.890Z,0.90
2022-09-02T00:54:09.509Z,0.70
2022-09-02T00:56:37.767Z,0.70
2022-09-02T00:59:05.739Z,0.70
2022-09-02T01:01:33.310Z,0.77
2022-09-02T01:04:00.904Z,0.73
2022-09-02T01:06:30.724Z,0.80
2022-09-02T01:09:02.140Z,0.80
2022-09-02T01:11:49.540Z,0.80
2022-09-02T01:14:17.378Z,0.77
2022-09-02T01:16:46.401Z,0.70
2022-09-02T01:19:25.348Z,0.80
2022-09-02T01:21:56.317Z,0.70
2022-09-02T01:24:25.829Z,0.90
2022-09-02T01:26:54.041Z,0.77
2022-09-02T01:29:22.208Z,0.90
2022-09-02T01:31:49.819Z,0.80
2022-09-02T01:34:17.189Z,0.70
2022-09-02T01:36:44.727Z,0.67
2022-09-02T01:39:13.489Z,0.90
2022-09-02T01:41:41.291Z,0.73
2022-09-02T01:44:08.868Z,0.70
2022-09-02T01:46:37.097Z,0.80
2022-09-02T01:49:05.000Z,0.70
2022-09-02T01:51:32.891Z,0.80
2022-09-02T01:54:01.482Z,0.80
2022-09-02T01:56:29.128Z,0.70
2022-09-02T01:58:56.743Z,0.83
2022-09-02T02:01:24.155Z,0.70
2022-09-02T02:03:52.521Z,0.70
2022-09-02T02:06:21.573Z,1.00
2022-09-02T02:08:49.375Z,0.70
2022-09-02T02:11:22.343Z,0.93
2022-09-02T02:13:53.230Z,0.80
2022-09-02T02:16:22.171Z,0.70
2022-09-02T02:18:49.650Z,0.80
2022-09-02T02:21:16.994Z,0.70
2022-09-02T02:23:45.293Z,0.90
2022-09-02T02:26:12.648Z,0.80
2022-09-02T02:28:40.009Z,0.70
2022-09-02T02:31:08.000Z,0.70
2022-09-02T02:33:38.364Z,0.70
2022-09-02T02:36:07.080Z,0.90
2022-09-02T02:38:35.523Z,0.60
2022-09-02T02:41:06.342Z,0.80
2022-09-02T02:43:34.904Z,0.70
2022-09-02T02:46:02.292Z,0.80
2022-09-02T02:48:30.810Z,0.70
2022-09-02T02:50:58.201Z,0.60
2022-09-02T02:53:25.853Z,0.70
2022-09-02T02:55:53.212Z,0.87
2022-09-02T02:58:20.513Z,0.90
2022-09-02T03:00:49.006Z,0.80
2022-09-02T03:03:19.687Z,0.70
2022-09-02T03:05:50.503Z,1.00
2022-09-02T03:08:20.982Z,0.90
2022-09-02T03:10:54.279Z,0.70
2022-09-02T03:13:24.095Z,1.03
2022-09-02T03:15:51.767Z,0.73
2022-09-02T03:18:20.548Z,0.80
2022-09-02T03:20:49.826Z,0.80
2022-09-02T03:23:18.841Z,0.87
2022-09-02T03:25:49.033Z,0.70
2022-09-02T03:28:24.988Z,0.70
2022-09-02T03:30:52.824Z,0.80
2022-09-02T03:33:20.823Z,0.80
2022-09-02T03:35:48.388Z,0.70
2022-09-02T03:38:16.295Z,0.90
2022-09-02T03:40:45.482Z,1.00
2022-09-02T03:43:13.115Z,0.90
2022-09-02T03:45:42.177Z,0.80
2022-09-02T03:48:12.934Z,1.10
2022-09-02T03:50:42.411Z,1.00
2022-09-02T03:53:18.163Z,0.93
2022-09-02T03:55:49.496Z,0.80
2022-09-02T03:58:19.265Z,0.90
2022-09-02T04:00:51.481Z,0.87
2022-09-02T04:03:20.170Z,1.00
2022-09-02T04:05:48.353Z,0.90
2022-09-02T04:08:16.023Z,0.90
2022-09-02T04:10:43.719Z,0.90
2022-09-02T04:13:11.396Z,0.70
2022-09-02T04:15:47.809Z,1.00
2022-09-02T04:18:17.694Z,1.20
2022-09-02T04:20:45.850Z,1.10
2022-09-02T04:23:14.472Z,0.80
2022-09-02T04:25:44.155Z,1.10
2022-09-02T04:28:13.194Z,0.70
2022-09-02T04:30:41.873Z,0.93
2022-09-02T04:33:10.014Z,0.80
2022-09-02T04:35:40.812Z,0.90
2022-09-02T04:38:09.276Z,0.80
2022-09-02T04:40:40.382Z,0.80
2022-09-02T04:43:07.946Z,1.10
2022-09-02T04:45:35.272Z,1.00
2022-09-02T04:48:03.078Z,0.80
2022-09-02T04:50:31.302Z,0.93
2022-09-02T04:53:00.031Z,0.80
2022-09-02T04:55:28.662Z,1.03
2022-09-02T04:57:56.114Z,1.03
2022-09-02T05:00:25.171Z,0.80
2022-09-02T05:02:54.756Z,0.90
2022-09-02T05:05:23.759Z,0.97
2022-09-02T05:07:52.123Z,1.00
2022-09-02T05:10:20.251Z,0.90
2022-09-02T05:12:47.906Z,0.90
2022-09-02T05:15:15.283Z,1.03
2022-09-02T05:17:42.779Z,0.90
2022-09-02T05:20:11.495Z,0.90
2022-09-02T05:22:41.104Z,0.90
2022-09-02T05:25:09.643Z,1.00
2022-09-02T05:27:37.484Z,1.07
2022-09-02T05:30:06.433Z,1.03
2022-09-02T05:32:37.987Z,0.90
2022-09-02T05:35:06.563Z,0.90
2022-09-02T05:37:35.641Z,1.00
2022-09-02T05:40:04.456Z,1.17
2022-09-02T05:42:34.615Z,1.10
2022-09-02T05:45:01.994Z,1.00
2022-09-02T05:47:29.410Z,1.00
2022-09-02T05:49:57.074Z,1.10
2022-09-02T05:52:26.137Z,1.30
2022-09-02T05:54:55.973Z,1.10
2022-09-02T05:57:24.048Z,0.90
2022-09-02T05:59:56.987Z,0.90
2022-09-02T06:02:30.048Z,1.10
2022-09-02T06:04:57.509Z,1.00
2022-09-02T06:07:26.401Z,1.03
2022-09-02T06:09:55.303Z,1.20
2022-09-02T06:12:26.177Z,0.90
2022-09-02T06:14:53.596Z,1.20
2022-09-02T06:17:22.359Z,1.10
2022-09-02T06:19:52.804Z,0.70
2022-09-02T06:22:22.684Z,1.00
2022-09-02T06:24:50.395Z,1.07
2022-09-02T06:27:21.905Z,1.03
2022-09-02T06:29:52.473Z,0.80
2022-09-02T06:32:22.279Z,1.00
2022-09-02T06:34:54.113Z,0.90
2022-09-02T06:37:22.281Z,1.00
2022-09-02T06:39:51.327Z,0.90
2022-09-02T06:42:23.945Z,1.07
2022-09-02T06:45:08.369Z,0.93
2022-09-02T06:47:38.083Z,1.00
2022-09-02T06:50:05.545Z,0.70
2022-09-02T06:52:33.654Z,1.00
2022-09-02T06:55:01.872Z,1.20
2022-09-02T06:57:34.042Z,1.00
2022-09-02T07:00:04.744Z,1.00
2022-09-02T07:02:34.277Z,1.00
2022-09-02T07:05:10.948Z,0.97
2022-09-02T07:07:40.413Z,1.20
2022-09-02T07:10:13.107Z,1.00
2022-09-02T07:12:44.571Z,1.00
2022-09-02T07:15:15.546Z,1.10
2022-09-02T07:17:44.011Z,1.00
2022-09-02T07:20:17.640Z,0.90
2022-09-02T07:25:20.552Z,1.00
2022-09-02T07:27:51.374Z,1.00
2022-09-02T07:30:19.080Z,1.10
2022-09-02T07:32:49.662Z,1.00
2022-09-02T07:35:20.177Z,1.07
2022-09-02T07:37:48.215Z,1.00
2022-09-02T07:40:16.310Z,1.10
2022-09-02T07:42:44.213Z,1.00
2022-09-02T07:45:12.957Z,1.00
2022-09-02T07:47:42.314Z,1.00
2022-09-02T07:50:21.530Z,1.00
2022-09-02T07:52:59.084Z,1.30
2022-09-02T07:55:31.050Z,1.00
2022-09-02T07:57:58.862Z,1.10
2022-09-02T08:00:27.887Z,1.17
2022-09-02T08:03:00.826Z,1.10
2022-09-02T08:05:33.935Z,1.00
2022-09-02T08:08:01.483Z,1.17
2022-09-02T08:10:29.600Z,1.10
2022-09-02T08:12:57.925Z,1.10
2022-09-02T08:15:28.714Z,1.10
2022-09-02T08:17:57.138Z,1.23
2022-09-02T08:20:24.625Z,1.10
2022-09-02T08:23:01.048Z,1.27
2022-09-02T08:25:38.678Z,1.30
2022-09-02T08:28:06.046Z,0.97
2022-09-02T08:30:33.701Z,1.00
2022-09-02T08:33:01.309Z,1.10
2022-09-02T08:35:28.747Z,1.20
2022-09-02T08:37:59.493Z,1.30
2022-09-02T08:40:34.250Z,1.27
2022-09-02T08:43:02.946Z,1.20
2022-09-02T08:45:34.357Z,1.33
2022-09-02T08:48:37.357Z,1.00
2022-09-02T08:51:08.008Z,1.03
2022-09-02T08:53:41.198Z,1.20
2022-09-02T08:56:12.479Z,1.40
2022-09-02T08:58:41.847Z,1.37
2022-09-02T09:01:18.405Z,1.23
2022-09-02T09:03:45.792Z,1.10
2022-09-02T09:06:22.130Z,1.33
2022-09-02T09:09:05.850Z,1.10
2022-09-02T09:11:40.280Z,1.30
2022-09-02T09:14:07.613Z,1.23
2022-09-02T09:16:41.230Z,1.20
2022-09-02T09:19:22.731Z,1.10
2022-09-02T09:21:50.055Z,1.20
2022-09-02T09:24:27.731Z,1.30
2022-09-02T09:26:55.582Z,1.27
2022-09-02T09:29:23.022Z,1.20
2022-09-02T09:31:55.095Z,1.23
2022-09-02T09:34:22.960Z,1.30
2022-09-02T09:36:56.208Z,1.60
2022-09-02T09:39:33.010Z,1.40
2022-09-02T09:42:02.917Z,1.30
2022-09-02T09:44:44.940Z,1.07
2022-09-02T09:47:19.390Z,1.50
2022-09-02T09:49:47.927Z,1.10
2022-09-02T09:52:25.731Z,1.30
2022-09-02T09:55:08.276Z,1.60
2022-09-02T09:57:37.682Z,1.10
2022-09-02T10:00:11.334Z,1.27
2022-09-02T10:02:47.213Z,1.40
2022-09-02T10:05:29.231Z,1.20
2022-09-02T10:07:58.675Z,1.30
2022-09-02T10:10:27.282Z,1.40
2022-09-02T10:12:56.545Z,1.30
2022-09-02T10:15:44.543Z,1.00
2022-09-02T10:18:20.798Z,1.40
2022-09-02T10:21:14.965Z,1.40
2022-09-02T10:23:48.519Z,1.40
2022-09-02T10:26:21.726Z,1.20
2022-09-02T10:29:08.438Z,1.40
2022-09-02T10:31:46.756Z,1.50
2022-09-02T10:34:23.987Z,1.20
2022-09-02T10:37:10.014Z,1.60
2022-09-02T10:39:37.377Z,1.30
2022-09-02T10:42:11.202Z,1.33
2022-09-02T10:45:08.119Z,1.40
2022-09-02T10:47:40.370Z,1.30
2022-09-02T10:50:23.733Z,1.40
2022-09-02T10:53:00.389Z,1.20
2022-09-02T10:55:50.821Z,1.30
2022-09-02T10:58:37.034Z,1.30
2022-09-02T11:01:04.587Z,1.20
2022-09-02T11:03:36.410Z,1.27
2022-09-02T11:06:11.955Z,1.50
2022-09-02T11:08:39.364Z,1.60
2022-09-02T11:11:06.666Z,1.23
2022-09-02T11:13:41.134Z,1.50
2022-09-02T11:16:15.251Z,1.30
2022-09-02T11:18:47.711Z,1.40
2022-09-02T11:21:30.505Z,1.10
2022-09-02T11:24:02.628Z,1.50
2022-09-02T11:26:42.767Z,1.43
2022-09-02T11:29:12.912Z,1.40
2022-09-02T11:31:44.998Z,1.70
2022-09-02T11:34:18.193Z,1.50
2022-09-02T11:36:45.641Z,1.33
2022-09-02T11:39:30.437Z,1.50
2022-09-02T11:42:16.735Z,1.40
2022-09-02T11:44:52.242Z,1.40
2022-09-02T11:47:24.453Z,1.50
2022-09-02T11:49:51.740Z,1.13
2022-09-02T11:52:26.018Z,1.50
2022-09-02T11:55:05.211Z,1.23
2022-09-02T11:57:33.151Z,1.57
2022-09-02T12:00:00.571Z,1.17
2022-09-02T12:02:33.507Z,1.27
2022-09-02T12:05:19.497Z,1.20
2022-09-02T12:07:50.476Z,1.20
2022-09-02T12:10:38.132Z,1.50
2022-09-02T12:13:18.484Z,1.30
2022-09-02T12:15:46.256Z,1.20
2022-09-02T12:18:31.931Z,1.47
2022-09-02T12:21:06.321Z,1.30
2022-09-02T12:23:53.192Z,1.30
2022-09-02T12:26:28.963Z,1.23
2022-09-02T12:29:13.133Z,1.30
2022-09-02T12:31:45.529Z,1.30
2022-09-02T12:34:22.350Z,1.20
2022-09-02T12:36:53.504Z,1.40
2022-09-02T12:39:23.681Z,1.30
2022-09-02T12:41:56.569Z,1.20
2022-09-02T12:44:33.594Z,1.10
2022-09-02T12:47:09.527Z,1.20
2022-09-02T12:49:45.977Z,1.10
2022-09-02T12:52:33.273Z,1.37
2022-09-02T12:55:09.483Z,1.10
2022-09-02T12:57:41.084Z,1.27
2022-09-02T13:00:08.825Z,1.40
2022-09-02T13:02:54.291Z,1.30
2022-09-02T13:05:44.396Z,1.10
2022-09-02T13:08:17.716Z,1.50
2022-09-02T13:10:51.378Z,1.30
2022-09-02T13:13:27.943Z,1.33
2022-09-02T13:16:15.606Z,1.20
2022-09-02T13:19:05.171Z,1.20
2022-09-02T13:21:58.345Z,1.30
2022-09-02T13:24:31.701Z,1.10
2022-09-02T13:27:11.605Z,1.10
2022-09-02T13:29:57.604Z,1.23
2022-09-02T13:32:25.934Z,1.20
2022-09-02T13:34:55.213Z,1.23
2022-09-02T13:37:39.513Z,1.20
2022-09-02T13:40:27.292Z,1.20
2022-09-02T13:42:59.105Z,1.00
2022-09-02T13:45:28.484Z,1.30
2022-09-02T13:47:57.475Z,1.50
2022-09-02T13:50:30.012Z,1.33
2022-09-02T13:55:58.765Z,1.33
2022-09-02T13:58:32.671Z,1.20
2022-09-02T14:01:17.960Z,1.40
2022-09-02T14:03:55.792Z,1.23
2022-09-02T14:06:24.766Z,1.27
2022-09-02T14:08:53.773Z,1.23
2022-09-02T14:11:21.910Z,1.30
2022-09-02T14:13:50.119Z,1.30
2022-09-02T14:16:33.543Z,1.10
2022-09-02T14:19:24.654Z,1.33
2022-09-02T14:21:56.301Z,1.40
2022-09-02T14:24:30.913Z,1.50
2022-09-02T14:26:59.370Z,1.10
2022-09-02T14:29:28.539Z,1.57
2022-09-02T14:32:15.640Z,1.37
2022-09-02T14:34:44.118Z,1.27
2022-09-02T14:37:19.902Z,1.40
2022-09-02T14:39:54.510Z,1.40
2022-09-02T14:42:21.920Z,1.20
2022-09-02T14:44:50.046Z,1.13
2022-09-02T14:47:20.819Z,1.10
2022-09-02T14:49:51.627Z,1.17
2022-09-02T14:52:20.842Z,1.20
2022-09-02T14:54:49.677Z,1.50
2022-09-02T14:57:25.204Z,1.20
2022-09-02T14:59:53.577Z,1.13
2022-09-02T15:02:27.020Z,1.20
2022-09-02T15:04:58.806Z,1.30
2022-09-02T15:07:26.512Z,1.20
2022-09-02T15:09:53.947Z,1.20
2022-09-02T15:12:26.443Z,1.37
2022-09-02T15:14:54.177Z,1.40
2022-09-02T15:17:21.757Z,1.23
2022-09-02T15:19:49.379Z,1.40
2022-09-02T15:22:17.226Z,1.40
2022-09-02T15:24:44.878Z,1.40
2022-09-02T15:27:12.644Z,1.33
2022-09-02T15:29:40.405Z,1.30
2022-09-02T15:32:08.164Z,1.30
2022-09-02T15:34:35.519Z,1.27
2022-09-02T15:37:03.324Z,1.30
2022-09-02T15:39:30.749Z,1.27
2022-09-02T15:41:58.695Z,1.40
2022-09-02T15:44:26.321Z,1.20
2022-09-02T15:46:54.235Z,1.20
2022-09-02T15:49:23.613Z,1.33
2022-09-02T15:51:51.845Z,1.50
2022-09-02T15:54:23.243Z,1.20
2022-09-02T15:56:54.861Z,1.43
2022-09-02T15:59:22.308Z,1.30
2022-09-02T16:01:58.459Z,1.70
2022-09-02T16:04:27.342Z,1.50
2022-09-02T16:06:54.797Z,1.60
2022-09-02T16:09:22.442Z,1.47
2022-09-02T16:11:51.821Z,1.60
2022-09-02T16:14:20.795Z,1.30
2022-09-02T16:16:49.744Z,1.30
2022-09-02T16:19:20.754Z,1.30
2022-09-02T16:21:48.622Z,1.20
2022-09-02T16:24:15.937Z,1.40
2022-09-02T16:26:43.274Z,1.17
2022-09-02T16:29:17.661Z,1.50
2022-09-02T16:31:57.098Z,1.10
2022-09-02T16:34:33.370Z,1.23
2022-09-02T16:37:00.897Z,1.23
2022-09-02T16:39:28.272Z,1.50
2022-09-02T16:41:55.735Z,1.53
2022-09-02T16:44:23.989Z,1.50
2022-09-02T16:46:52.120Z,1.60
2022-09-02T16:49:20.883Z,1.40
2022-09-02T16:51:49.501Z,1.20
2022-09-02T16:54:17.852Z,1.33
2022-09-02T16:56:57.940Z,1.50
2022-09-02T16:59:25.439Z,1.37
2022-09-02T17:01:52.821Z,1.20
2022-09-02T17:04:20.225Z,1.20
2022-09-02T17:06:47.710Z,1.30
2022-09-02T17:09:16.254Z,1.30
2022-09-02T17:11:45.343Z,1.30
2022-09-02T17:14:16.972Z,1.10
2022-09-02T17:16:45.514Z,1.20
2022-09-02T17:19:17.028Z,1.07
2022-09-02T17:21:54.189Z,1.20
2022-09-02T17:24:23.061Z,1.30
2022-09-02T17:26:51.319Z,1.10
2022-09-02T17:32:07.884Z,1.17
2022-09-02T17:34:35.362Z,1.00
2022-09-02T17:37:03.198Z,1.10
2022-09-02T17:39:30.983Z,1.20
2022-09-02T17:41:58.421Z,1.13
2022-09-02T17:44:36.233Z,1.00
2022-09-02T17:47:11.104Z,1.20
2022-09-02T17:49:44.027Z,1.20
2022-09-02T17:52:13.262Z,1.30
2022-09-02T17:54:41.193Z,1.40
2022-09-02T17:57:09.655Z,1.20
2022-09-02T17:59:46.173Z,1.37
2022-09-02T18:02:22.548Z,1.10
2022-09-02T18:04:55.775Z,1.27
2022-09-02T18:07:41.808Z,1.10
2022-09-02T18:10:09.225Z,1.10
2022-09-02T18:12:37.064Z,1.20
2022-09-02T18:15:06.165Z,1.20
2022-09-02T18:17:46.772Z,1.23
2022-09-02T18:20:18.518Z,1.00
2022-09-02T18:23:04.809Z,1.10
2022-09-02T18:26:01.593Z,1.20
2022-09-02T18:28:48.209Z,1.10
2022-09-02T18:31:34.251Z,1.20
2022-09-02T18:34:13.562Z,1.10
2022-09-02T18:36:49.516Z,1.20
2022-09-02T18:39:32.142Z,1.00
2022-09-02T18:42:18.323Z,1.30
2022-09-02T18:44:48.406Z,1.00
2022-09-02T18:47:21.596Z,1.30
2022-09-02T18:49:49.162Z,1.20
2022-09-02T18:52:16.523Z,1.10
2022-09-02T18:54:46.161Z,1.10
2022-09-02T18:57:14.459Z,1.13
2022-09-02T18:59:52.056Z,1.00
2022-09-02T19:02:29.469Z,0.90
2022-09-02T19:05:01.391Z,1.00
2022-09-02T19:07:47.957Z,1.20
2022-09-02T19:10:15.487Z,1.20
2022-09-02T19:12:44.179Z,1.17
2022-09-02T19:15:13.157Z,1.00
2022-09-02T19:17:40.807Z,1.20
2022-09-02T19:20:09.113Z,1.27
2022-09-02T19:22:41.909Z,1.33
2022-09-02T19:25:12.712Z,0.97
2022-09-02T19:27:42.056Z,1.40
2022-09-02T19:30:12.313Z,1.30
2022-09-02T19:32:41.207Z,1.73
2022-09-02T19:35:16.508Z,1.70
2022-09-02T19:37:46.932Z,1.63
2022-09-02T19:40:17.168Z,1.50
2022-09-02T19:42:44.558Z,1.50
2022-09-02T19:45:16.189Z,1.70
2022-09-02T19:48:06.181Z,1.67
2022-09-02T19:50:36.116Z,1.50
2022-09-02T19:53:03.577Z,1.70
2022-09-02T19:55:33.581Z,1.50
2022-09-02T19:58:01.038Z,1.50
2022-09-02T20:00:28.402Z,1.30
2022-09-02T20:02:56.149Z,1.57
2022-09-02T20:05:25.869Z,1.50
2022-09-02T20:07:54.877Z,1.50
2022-09-02T20:10:27.911Z,1.30
2022-09-02T20:12:57.640Z,1.20
2022-09-02T20:15:24.934Z,1.50
2022-09-02T20:17:52.254Z,1.60
2022-09-02T20:20:21.670Z,1.43
2022-09-02T20:22:49.822Z,1.30
2022-09-02T20:25:17.130Z,1.50
2022-09-02T20:27:44.462Z,1.43
2022-09-02T20:30:13.239Z,1.20
2022-09-02T20:32:42.967Z,1.10
2022-09-02T20:35:16.346Z,1.23
2022-09-02T20:37:53.016Z,1.20
2022-09-02T20:40:21.221Z,1.20
2022-09-02T20:42:54.767Z,1.17
2022-09-02T20:45:38.096Z,1.17
2022-09-02T20:48:27.597Z,1.30
2022-09-02T20:50:54.927Z,1.30
2022-09-02T20:53:25.239Z,1.30
2022-09-02T20:56:01.610Z,1.33
2022-09-02T20:58:36.529Z,1.27
2022-09-02T21:01:08.340Z,1.00
2022-09-02T21:03:41.015Z,1.23
2022-09-02T21:06:10.794Z,1.30
2022-09-02T21:08:56.915Z,1.20
2022-09-02T21:11:29.353Z,1.40
2022-09-02T21:14:03.569Z,1.30
2022-09-02T21:16:39.611Z,1.17
2022-09-02T21:19:25.714Z,1.47
2022-09-02T21:21:53.041Z,1.10
2022-09-02T21:24:26.940Z,1.13
2022-09-02T21:26:58.699Z,1.20
2022-09-02T21:29:25.967Z,1.20
2022-09-02T21:32:09.631Z,1.17
2022-09-02T21:34:40.018Z,1.60
2022-09-02T21:37:12.353Z,1.13
2022-09-02T21:39:42.389Z,1.00
2022-09-02T21:42:15.417Z,1.10
2022-09-02T21:45:06.081Z,1.10
2022-09-02T21:47:39.655Z,1.10
2022-09-02T21:50:09.967Z,1.20
2022-09-02T21:52:58.048Z,1.20
2022-09-02T21:55:45.731Z,1.00
2022-09-02T21:58:31.787Z,1.00
2022-09-02T22:01:07.015Z,1.23
2022-09-02T22:03:41.395Z,1.30
2022-09-02T22:06:22.981Z,1.20
2022-09-02T22:08:59.485Z,1.20
2022-09-02T22:11:39.755Z,1.13
2022-09-02T22:14:14.860Z,1.00
2022-09-02T22:16:48.634Z,1.00
2022-09-02T22:19:16.703Z,1.00
2022-09-02T22:21:55.134Z,1.03
2022-09-02T22:24:27.456Z,1.00
2022-09-02T22:27:06.322Z,0.87
2022-09-02T22:29:49.190Z,1.00
2022-09-02T22:32:19.573Z,1.17
2022-09-02T22:35:13.346Z,1.17
2022-09-02T22:37:48.512Z,1.00
2022-09-02T22:40:18.633Z,1.37
2022-09-02T22:42:46.976Z,1.27
2022-09-02T22:46:08.117Z,1.00
2022-09-02T22:48:55.682Z,1.20
2022-09-02T22:51:49.572Z,1.03
2022-09-02T22:54:17.440Z,1.30
2022-09-02T22:56:50.768Z,1.00
2022-09-02T22:59:33.437Z,1.00
2022-09-02T23:02:05.136Z,1.00
2022-09-02T23:04:44.782Z,1.00
2022-09-02T23:07:14.065Z,1.20
2022-09-02T23:09:41.412Z,1.07
2022-09-02T23:12:27.679Z,1.30
2022-09-02T23:15:08.918Z,1.00
2022-09-02T23:17:38.970Z,1.13
2022-09-02T23:20:06.351Z,1.10
2022-09-02T23:22:59.272Z,1.17
2022-09-02T23:25:37.751Z,1.03
2022-09-02T23:28:19.201Z,1.00
2022-09-02T23:30:52.362Z,1.00
2022-09-02T23:33:36.678Z,1.10
2022-09-02T23:36:05.084Z,1.20
2022-09-02T23:38:43.052Z,1.10
2022-09-02T23:41:11.975Z,1.07
2022-09-02T23:43:39.713Z,0.90
2022-09-02T23:46:27.425Z,1.00
2022-09-02T23:48:54.784Z,0.97
2022-09-02T23:51:32.661Z,1.10
2022-09-02T23:54:04.017Z,1.27
2022-09-02T23:56:40.295Z,1.10
2022-09-02T23:59:13.891Z,0.90
